Hamlet, North Carolina
Current Conditions -  °F | °C
As of 1:35 PM on Monday 22 Dec 2014 (Local Time) from KRCZ Reporting Station
Haze Haze  
Wind Chill: 34°   Ceiling: 300
Heat Index: 40°   Visibility: 1.7mi
Dew Point: 39°   Wind: 8mph
Humidity: 97%   Direction: 40°NE
Pressure: 30.02"   Gusts: NA
Location:  34.89°N, 79.7°W
Report Text: KRCZ 221835Z AUTO 04007KT 1 3/4SM BR OVC003 04/04 A3002 RMK AO2 T00420038
Loading
Personal Weather Stations






























Interactive Weather Map New forecast layout! Learn more

10-Day Weather Forecast

Advertisements
Track Severe Weather on mobile